Serranopolis, Brazil
Current Conditions -  °F | °C
As of 8:15 AM on Monday 22 Dec 2014 (Local Time) from SBBW Reporting Station
Broken Clouds Broken Clouds  
Wind Chill: 73°   Ceiling: 9000
Heat Index: 73°   Visibility: 6mi
Dew Point: 73°   Wind: 6mph
Humidity: 100%   Direction: 60°ENE
Pressure: 29.97"   Gusts: NA
Location:  18.31°S, 51.96°W
Report Text: SBBW 221015Z 06005KT 9999 FEW012 BKN090 23/23 Q1015
Loading
Personal Weather Stations






























Interactive Weather Map New forecast layout! Learn more

10-Day Weather Forecast

Advertisements
Track Severe Weather on mobile